createdAt,value
2022-08-26T00:01:56.932Z,100705.13
2022-08-26T00:04:25.759Z,100709.09
2022-08-26T00:06:55.798Z,100707.13
2022-08-26T00:09:25.065Z,100707.91
2022-08-26T00:11:54.134Z,100704.75
2022-08-26T00:14:27.172Z,100708.31
2022-08-26T00:16:57.605Z,100710.69
2022-08-26T00:19:25.163Z,100704.31
2022-08-26T00:21:52.457Z,100705.13
2022-08-26T00:24:21.890Z,100700.34
2022-08-26T00:26:51.568Z,100699.97
2022-08-26T00:29:21.320Z,100703.91
2022-08-26T00:31:50.063Z,100701.91
2022-08-26T00:34:19.634Z,100700.34
2022-08-26T00:36:51.839Z,100698.75
2022-08-26T00:39:20.405Z,100696.78
2022-08-26T00:41:48.366Z,100703.91
2022-08-26T00:44:15.663Z,100702.75
2022-08-26T00:46:47.280Z,100701.53
2022-08-26T00:49:22.140Z,100700.34
2022-08-26T00:51:59.082Z,100705.09
2022-08-26T00:54:32.720Z,100703.09
2022-08-26T00:57:08.715Z,100703.09
2022-08-26T00:59:47.677Z,100706.25
2022-08-26T01:02:20.046Z,100705.88
2022-08-26T01:04:55.758Z,100711.03
2022-08-26T01:07:30.286Z,100709.44
2022-08-26T01:10:01.458Z,100703.47
2022-08-26T01:12:33.797Z,100722.56
2022-08-26T01:15:02.383Z,100715.00
2022-08-26T01:17:30.130Z,100717.38
2022-08-26T01:20:24.413Z,100718.97
2022-08-26T01:23:05.458Z,100712.59
2022-08-26T01:25:35.094Z,100720.16
2022-08-26T01:28:06.990Z,100707.88
2022-08-26T01:30:35.818Z,100706.25
2022-08-26T01:33:07.010Z,100701.47
2022-08-26T01:35:34.654Z,100699.09
2022-08-26T01:38:02.484Z,100702.66
2022-08-26T01:40:32.859Z,100709.44
2022-08-26T01:43:02.666Z,100709.00
2022-08-26T01:45:33.498Z,100710.59
2022-08-26T01:48:05.078Z,100715.75
2022-08-26T01:50:35.482Z,100714.94
2022-08-26T01:53:07.836Z,100711.38
2022-08-26T01:55:39.465Z,100718.91
2022-08-26T01:58:14.028Z,100718.91
2022-08-26T02:00:41.516Z,100714.56
2022-08-26T02:03:18.272Z,100709.78
2022-08-26T02:05:58.250Z,100711.34
2022-08-26T02:08:39.158Z,100705.00
2022-08-26T02:11:07.658Z,100710.91
2022-08-26T02:13:40.107Z,100705.78
2022-08-26T02:16:08.917Z,100701.81
2022-08-26T02:18:40.540Z,100705.41
2022-08-26T02:21:08.791Z,100708.19
2022-08-26T02:23:36.272Z,100705.00
2022-08-26T02:26:19.980Z,100696.25
2022-08-26T02:28:53.568Z,100685.94
2022-08-26T02:31:20.867Z,100687.91
2022-08-26T02:33:48.135Z,100685.56
2022-08-26T02:36:24.081Z,100689.91
2022-08-26T02:38:56.085Z,100693.47
2022-08-26T02:41:23.863Z,100695.88
2022-08-26T02:43:51.956Z,100702.59
2022-08-26T02:46:21.583Z,100701.78
2022-08-26T02:48:55.521Z,100699.41
2022-08-26T02:51:22.721Z,100702.56
2022-08-26T02:53:50.218Z,100696.63
2022-08-26T02:56:18.662Z,100698.19
2022-08-26T02:58:46.167Z,100693.03
2022-08-26T03:01:28.399Z,100694.63
2022-08-26T03:03:57.027Z,100690.66
2022-08-26T03:06:25.006Z,100705.34
2022-08-26T03:08:53.486Z,100710.91
2022-08-26T03:11:20.707Z,100707.72
2022-08-26T03:13:49.102Z,100705.75
2022-08-26T03:16:17.087Z,100704.53
2022-08-26T03:18:52.059Z,100711.69
2022-08-26T03:21:20.200Z,100701.41
2022-08-26T03:23:49.946Z,100703.75
2022-08-26T03:26:17.368Z,100711.66
2022-08-26T03:29:03.160Z,100713.59
2022-08-26T03:31:30.614Z,100716.38
2022-08-26T03:33:59.869Z,100721.50
2022-08-26T03:36:30.007Z,100723.13
2022-08-26T03:38:58.746Z,100726.28
2022-08-26T03:41:26.390Z,100730.66
2022-08-26T03:43:56.449Z,100723.91
2022-08-26T03:46:25.689Z,100724.69
2022-08-26T03:48:53.908Z,100738.59
2022-08-26T03:51:21.341Z,100725.06
2022-08-26T03:53:48.474Z,100726.25
2022-08-26T03:56:17.229Z,100727.84
2022-08-26T03:58:44.879Z,100734.22
2022-08-26T04:01:16.126Z,100733.41
2022-08-26T04:04:00.308Z,100730.25
2022-08-26T04:06:43.171Z,100729.03
2022-08-26T04:09:20.080Z,100727.06
2022-08-26T04:11:50.605Z,100729.03
2022-08-26T04:14:21.097Z,100727.03
2022-08-26T04:16:50.019Z,100730.59
2022-08-26T04:19:19.227Z,100726.66
2022-08-26T04:21:49.170Z,100722.25
2022-08-26T04:24:17.639Z,100732.19
2022-08-26T04:26:45.171Z,100725.47
2022-08-26T04:29:15.707Z,100720.69
2022-08-26T04:31:43.113Z,100726.66
2022-08-26T04:34:11.247Z,100730.63
2022-08-26T04:36:41.907Z,100738.59
2022-08-26T04:39:16.962Z,100738.63
2022-08-26T04:41:47.477Z,100750.19
2022-08-26T04:44:16.638Z,100754.19
2022-08-26T04:46:44.747Z,100761.34
2022-08-26T04:49:13.007Z,100756.22
2022-08-26T04:51:40.674Z,100753.50
2022-08-26T04:54:08.874Z,100749.19
2022-08-26T04:56:39.347Z,100749.31
2022-08-26T04:59:16.491Z,100759.16
2022-08-26T05:01:53.476Z,100746.19
2022-08-26T05:04:22.272Z,100742.22
2022-08-26T05:06:49.891Z,100738.75
2022-08-26T05:09:18.809Z,100745.84
2022-08-26T05:11:48.508Z,100747.25
2022-08-26T05:14:20.876Z,100746.53
2022-08-26T05:16:48.085Z,100752.34
2022-08-26T05:19:19.108Z,100755.53
2022-08-26T05:21:48.623Z,100750.88
2022-08-26T05:24:17.001Z,100745.06
2022-08-26T05:26:48.150Z,100739.28
2022-08-26T05:29:16.740Z,100740.09
2022-08-26T05:31:44.213Z,100747.94
2022-08-26T05:34:11.423Z,100747.75
2022-08-26T05:36:39.345Z,100744.81
2022-08-26T05:39:07.459Z,100754.13
2022-08-26T05:41:38.743Z,100753.44
2022-08-26T05:44:09.116Z,100757.84
2022-08-26T05:46:37.644Z,100757.16
2022-08-26T05:49:12.203Z,100755.91
2022-08-26T05:51:42.372Z,100753.31
2022-08-26T05:54:10.496Z,100760.13
2022-08-26T05:56:39.199Z,100758.75
2022-08-26T05:59:10.896Z,100764.63
2022-08-26T06:01:43.775Z,100750.78
2022-08-26T06:04:11.747Z,100753.00
2022-08-26T06:06:42.834Z,100749.94
2022-08-26T06:09:11.426Z,100762.53
2022-08-26T06:11:40.391Z,100754.06
2022-08-26T06:14:08.639Z,100747.91
2022-08-26T06:16:40.868Z,100754.59
2022-08-26T06:19:11.486Z,100756.78
2022-08-26T06:21:42.282Z,100760.44
2022-08-26T06:24:31.959Z,100752.28
2022-08-26T06:27:02.995Z,100750.78
2022-08-26T06:29:33.860Z,100745.84
2022-08-26T06:32:02.097Z,100745.28
2022-08-26T06:34:30.624Z,100754.94
2022-08-26T06:37:02.713Z,100744.56
2022-08-26T06:39:31.568Z,100749.03
2022-08-26T06:42:00.254Z,100751.38
2022-08-26T06:44:28.119Z,100753.78
2022-08-26T06:46:55.595Z,100756.31
2022-08-26T06:49:26.616Z,100757.78
2022-08-26T06:51:58.692Z,100749.31
2022-08-26T06:54:27.877Z,100758.28
2022-08-26T06:56:57.070Z,100755.00
2022-08-26T06:59:25.185Z,100758.94
2022-08-26T07:01:53.304Z,100748.41
2022-08-26T07:04:23.360Z,100751.09
2022-08-26T07:06:52.623Z,100747.22
2022-08-26T07:09:23.106Z,100759.66
2022-08-26T07:11:51.622Z,100755.22
2022-08-26T07:14:21.304Z,100748.13
2022-08-26T07:16:52.500Z,100759.06
2022-08-26T07:19:29.882Z,100754.81
2022-08-26T07:22:05.240Z,100757.00
2022-08-26T07:24:35.120Z,100749.03
2022-08-26T07:27:05.869Z,100754.78
2022-08-26T07:29:35.028Z,100758.56
2022-08-26T07:32:02.866Z,100756.16
2022-08-26T07:34:33.424Z,100755.03
2022-08-26T07:37:01.120Z,100758.75
2022-08-26T07:39:31.544Z,100763.25
2022-08-26T07:42:07.701Z,100770.50
2022-08-26T07:44:37.599Z,100759.28
2022-08-26T07:47:19.352Z,100765.25
2022-08-26T07:49:55.359Z,100766.03
2022-08-26T07:52:26.181Z,100765.00
2022-08-26T07:54:55.623Z,100765.25
2022-08-26T07:57:24.251Z,100767.34
2022-08-26T07:59:54.117Z,100761.59
2022-08-26T08:02:24.039Z,100768.75
2022-08-26T08:04:52.016Z,100767.97
2022-08-26T08:07:19.312Z,100767.56
2022-08-26T08:09:49.714Z,100765.34
2022-08-26T08:12:18.510Z,100771.00
2022-08-26T08:14:47.226Z,100767.03
2022-08-26T08:17:16.308Z,100768.50
2022-08-26T08:19:43.860Z,100767.25
2022-08-26T08:22:17.758Z,100771.34
2022-08-26T08:24:50.034Z,100762.81
2022-08-26T08:27:23.801Z,100758.84
2022-08-26T08:29:55.027Z,100752.41
2022-08-26T08:32:23.716Z,100765.13
2022-08-26T08:34:51.086Z,100759.53
2022-08-26T08:37:18.893Z,100754.69
2022-08-26T08:39:46.178Z,100751.00
2022-08-26T08:42:28.177Z,100763.31
2022-08-26T08:44:58.862Z,100763.44
2022-08-26T08:47:31.339Z,100756.28
2022-08-26T08:50:30.209Z,100757.84
2022-08-26T08:53:26.526Z,100755.00
2022-08-26T08:56:10.588Z,100754.63
2022-08-26T08:58:59.729Z,100762.72
2022-08-26T09:02:05.017Z,100764.28
2022-08-26T09:04:54.550Z,100763.75
2022-08-26T09:07:37.542Z,100759.66
2022-08-26T09:10:18.916Z,100764.06
2022-08-26T09:12:48.341Z,100755.25
2022-08-26T09:15:30.194Z,100756.84
2022-08-26T09:18:32.027Z,100758.00
2022-08-26T09:21:12.323Z,100753.88
2022-08-26T09:23:42.979Z,100761.22
2022-08-26T09:26:42.584Z,100754.00
2022-08-26T09:31:49.138Z,100755.91
2022-08-26T09:34:21.335Z,100746.50
2022-08-26T09:36:53.711Z,100751.81
2022-08-26T09:39:24.469Z,100757.84
2022-08-26T09:42:20.933Z,100757.84
2022-08-26T09:45:02.068Z,100747.59
2022-08-26T09:47:39.786Z,100751.69
2022-08-26T09:50:14.681Z,100753.56
2022-08-26T09:52:42.716Z,100741.72
2022-08-26T09:55:16.339Z,100747.34
2022-08-26T09:57:51.203Z,100755.09
2022-08-26T10:00:34.251Z,100748.47
2022-08-26T10:03:12.483Z,100749.25
2022-08-26T10:05:56.609Z,100755.38
2022-08-26T10:08:26.534Z,100754.31
2022-08-26T10:10:56.511Z,100741.84
2022-08-26T10:13:56.830Z,100744.00
2022-08-26T10:16:56.702Z,100752.22
2022-08-26T10:19:55.516Z,100750.25
2022-08-26T10:22:30.037Z,100753.63
2022-08-26T10:25:02.773Z,100749.44
2022-08-26T10:27:31.455Z,100749.63
2022-08-26T10:30:08.219Z,100744.75
2022-08-26T10:33:02.404Z,100747.91
2022-08-26T10:35:32.125Z,100756.16
2022-08-26T10:38:08.937Z,100749.50
2022-08-26T10:40:49.142Z,100745.84
2022-08-26T10:43:43.578Z,100741.75
2022-08-26T10:46:19.948Z,100726.09
2022-08-26T10:48:54.215Z,100728.44
2022-08-26T10:51:31.621Z,100731.75
2022-08-26T10:54:08.562Z,100740.94
2022-08-26T10:57:30.349Z,100737.81
2022-08-26T11:00:30.263Z,100740.22
2022-08-26T11:03:24.991Z,100740.94
2022-08-26T11:06:19.830Z,100735.41
2022-08-26T11:08:49.990Z,100726.91
2022-08-26T11:11:38.999Z,100719.88
2022-08-26T11:14:07.930Z,100727.72
2022-08-26T11:16:44.485Z,100730.41
2022-08-26T11:20:00.860Z,100729.81
2022-08-26T11:22:47.397Z,100721.88
2022-08-26T11:25:19.841Z,100722.16
2022-08-26T11:27:52.810Z,100698.06
2022-08-26T11:30:20.691Z,100705.69
2022-08-26T11:32:52.250Z,100711.84
2022-08-26T11:35:24.485Z,100713.53
2022-08-26T11:37:57.480Z,100713.03
2022-08-26T11:40:32.653Z,100708.53
2022-08-26T11:43:07.718Z,100711.91
2022-08-26T11:45:40.107Z,100704.84
2022-08-26T11:48:29.891Z,100714.19
2022-08-26T11:51:04.857Z,100717.69
2022-08-26T11:53:34.894Z,100696.84
2022-08-26T11:56:07.135Z,100703.47
2022-08-26T11:58:35.483Z,100701.75
2022-08-26T12:01:09.935Z,100693.72
2022-08-26T12:03:44.734Z,100690.69
2022-08-26T12:06:28.005Z,100675.44
2022-08-26T12:09:00.357Z,100682.16
2022-08-26T12:11:31.767Z,100687.38
2022-08-26T12:14:02.565Z,100682.16
2022-08-26T12:16:37.171Z,100690.91
2022-08-26T12:19:32.677Z,100684.75
2022-08-26T12:22:25.122Z,100682.28
2022-08-26T12:24:59.633Z,100687.66
2022-08-26T12:27:32.003Z,100676.84
2022-08-26T12:30:12.460Z,100676.28
2022-08-26T12:32:56.539Z,100667.53
2022-08-26T12:35:29.529Z,100668.41
2022-08-26T12:37:57.862Z,100665.66
2022-08-26T12:40:35.684Z,100663.00
2022-08-26T12:43:06.339Z,100655.69
2022-08-26T12:45:44.346Z,100655.78
2022-08-26T12:48:24.446Z,100650.19
2022-08-26T12:50:52.726Z,100657.00
2022-08-26T12:53:32.399Z,100654.59
2022-08-26T12:56:17.766Z,100646.22
2022-08-26T12:58:45.474Z,100655.63
2022-08-26T13:01:13.340Z,100657.97
2022-08-26T13:03:44.688Z,100649.56
2022-08-26T13:06:20.928Z,100644.81
2022-08-26T13:09:06.669Z,100638.03
2022-08-26T13:11:35.905Z,100626.00
2022-08-26T13:14:08.431Z,100632.69
2022-08-26T13:16:37.178Z,100628.94
2022-08-26T13:19:10.201Z,100625.91
2022-08-26T13:21:44.061Z,100638.19
2022-08-26T13:24:36.787Z,100637.09
2022-08-26T13:27:06.383Z,100642.47
2022-08-26T13:29:34.080Z,100651.66
2022-08-26T13:32:01.886Z,100652.50
2022-08-26T13:34:30.737Z,100655.75
2022-08-26T13:36:58.650Z,100649.44
2022-08-26T13:39:26.890Z,100651.13
2022-08-26T13:41:54.706Z,100643.72
2022-08-26T13:44:22.184Z,100631.16
2022-08-26T13:46:49.724Z,100630.31
2022-08-26T13:49:16.877Z,100627.91
2022-08-26T13:51:44.311Z,100632.91
2022-08-26T13:54:11.545Z,100629.28
2022-08-26T13:56:39.056Z,100633.38
2022-08-26T13:59:07.125Z,100624.03
2022-08-26T14:01:35.541Z,100629.31
2022-08-26T14:04:03.504Z,100627.34
2022-08-26T14:06:30.715Z,100634.19
2022-08-26T14:08:58.781Z,100623.22
2022-08-26T14:11:26.345Z,100620.88
2022-08-26T14:13:53.670Z,100620.16
2022-08-26T14:16:26.070Z,100628.69
2022-08-26T14:18:54.217Z,100628.41
2022-08-26T14:21:21.898Z,100633.56
2022-08-26T14:23:53.022Z,100628.50
2022-08-26T14:26:28.784Z,100629.34
2022-08-26T14:29:04.042Z,100615.72
2022-08-26T14:31:33.318Z,100608.06
2022-08-26T14:34:07.313Z,100609.19
2022-08-26T14:36:35.445Z,100604.06
2022-08-26T14:39:06.729Z,100601.34
2022-08-26T14:41:38.508Z,100608.22
2022-08-26T14:44:12.655Z,100611.50
2022-08-26T14:46:53.426Z,100614.75
2022-08-26T14:49:23.287Z,100621.50
2022-08-26T14:51:50.709Z,100623.50
2022-08-26T14:54:19.429Z,100622.72
2022-08-26T14:56:54.274Z,100621.50
2022-08-26T14:59:28.248Z,100619.13
2022-08-26T15:01:57.018Z,100612.38
2022-08-26T15:04:25.455Z,100613.53
2022-08-26T15:06:54.818Z,100617.47
2022-08-26T15:09:23.209Z,100611.84
2022-08-26T15:11:51.416Z,100623.16
2022-08-26T15:14:20.162Z,100632.09
2022-08-26T15:16:53.227Z,100647.69
2022-08-26T15:19:21.706Z,100654.41
2022-08-26T15:21:50.061Z,100655.56
2022-08-26T15:24:20.733Z,100662.28
2022-08-26T15:26:48.422Z,100663.84
2022-08-26T15:29:15.835Z,100666.25
2022-08-26T15:31:43.333Z,100662.66
2022-08-26T15:34:16.481Z,100658.66
2022-08-26T15:36:46.196Z,100653.44
2022-08-26T15:39:15.055Z,100658.16
2022-08-26T15:41:42.410Z,100656.53
2022-08-26T15:44:11.395Z,100663.22
2022-08-26T15:46:39.449Z,100654.84
2022-08-26T15:49:08.010Z,100652.47
2022-08-26T15:51:45.583Z,100647.34
2022-08-26T15:54:14.497Z,100643.00
2022-08-26T15:56:43.436Z,100640.72
2022-08-26T15:59:11.997Z,100640.81
2022-08-26T16:01:40.128Z,100642.41
2022-08-26T16:04:08.474Z,100648.75
2022-08-26T16:06:38.307Z,100643.16
2022-08-26T16:09:07.400Z,100645.56
2022-08-26T16:11:36.289Z,100647.91
2022-08-26T16:14:04.841Z,100651.50
2022-08-26T16:16:32.515Z,100651.84
2022-08-26T16:19:03.265Z,100642.69
2022-08-26T16:21:35.058Z,100641.53
2022-08-26T16:24:03.468Z,100638.75
2022-08-26T16:26:33.473Z,100637.63
2022-08-26T16:29:07.922Z,100643.25
2022-08-26T16:31:37.425Z,100638.94
2022-08-26T16:34:07.063Z,100636.16
2022-08-26T16:36:35.707Z,100632.19
2022-08-26T16:39:04.260Z,100628.97
2022-08-26T16:41:32.337Z,100622.66
2022-08-26T16:43:59.733Z,100625.44
2022-08-26T16:46:28.240Z,100632.97
2022-08-26T16:48:57.143Z,100623.81
2022-08-26T16:51:29.685Z,100616.25
2022-08-26T16:53:57.676Z,100615.09
2022-08-26T16:56:34.225Z,100619.13
2022-08-26T16:59:03.719Z,100619.19
2022-08-26T17:01:30.982Z,100626.34
2022-08-26T17:03:58.259Z,100621.97
2022-08-26T17:06:25.531Z,100620.41
2022-08-26T17:08:54.336Z,100623.22
2022-08-26T17:11:21.659Z,100618.81
2022-08-26T17:13:48.907Z,100612.84
2022-08-26T17:16:16.532Z,100621.22
2022-08-26T17:18:44.017Z,100608.88
2022-08-26T17:21:13.209Z,100607.31
2022-08-26T17:23:41.746Z,100606.94
2022-08-26T17:26:11.164Z,100600.16
2022-08-26T17:28:39.229Z,100604.59
2022-08-26T17:31:07.627Z,100598.63
2022-08-26T17:33:34.832Z,100597.13
2022-08-26T17:36:02.390Z,100607.16
2022-08-26T17:38:29.581Z,100601.59
2022-08-26T17:40:57.822Z,100602.44
2022-08-26T17:43:28.360Z,100612.44
2022-08-26T17:46:07.488Z,100602.88
2022-08-26T17:48:36.981Z,100599.31
2022-08-26T17:51:13.488Z,100603.31
2022-08-26T17:53:41.593Z,100604.13
2022-08-26T17:56:11.225Z,100601.78
2022-08-26T17:58:39.115Z,100606.56
2022-08-26T18:01:07.133Z,100611.00
2022-08-26T18:03:37.351Z,100620.56
2022-08-26T18:06:11.668Z,100619.38
2022-08-26T18:08:40.519Z,100620.97
2022-08-26T18:11:09.880Z,100621.78
2022-08-26T18:13:37.654Z,100631.34
2022-08-26T18:16:13.433Z,100631.78
2022-08-26T18:18:40.842Z,100628.16
2022-08-26T18:21:16.990Z,100638.16
2022-08-26T18:23:45.972Z,100638.97
2022-08-26T18:26:29.251Z,100633.00
2022-08-26T18:28:56.849Z,100638.59
2022-08-26T18:31:24.244Z,100641.00
2022-08-26T18:33:52.185Z,100650.56
2022-08-26T18:36:23.173Z,100660.50
2022-08-26T18:38:51.909Z,100653.75
2022-08-26T18:41:22.006Z,100664.91
2022-08-26T18:43:50.993Z,100656.94
2022-08-26T18:46:19.331Z,100664.16
2022-08-26T18:48:49.066Z,100658.19
2022-08-26T18:51:21.414Z,100668.16
2022-08-26T18:53:48.838Z,100671.38
2022-08-26T18:56:18.538Z,100675.78
2022-08-26T18:58:46.346Z,100683.34
2022-08-26T19:01:14.197Z,100687.31
2022-08-26T19:03:41.438Z,100681.75
2022-08-26T19:06:12.847Z,100688.94
2022-08-26T19:08:44.599Z,100685.38
2022-08-26T19:11:15.506Z,100691.38
2022-08-26T19:13:44.141Z,100693.72
2022-08-26T19:16:18.440Z,100685.75
2022-08-26T19:18:45.812Z,100691.34
2022-08-26T19:21:14.077Z,100690.56
2022-08-26T19:23:41.356Z,100692.13
2022-08-26T19:26:11.215Z,100683.38
2022-08-26T19:28:42.093Z,100691.34
2022-08-26T19:31:12.666Z,100689.78
2022-08-26T19:33:42.192Z,100683.81
2022-08-26T19:36:15.426Z,100684.59
2022-08-26T19:38:45.531Z,100685.81
2022-08-26T19:41:19.041Z,100692.19
2022-08-26T19:43:47.095Z,100679.44
2022-08-26T19:46:22.361Z,100680.66
2022-08-26T19:48:54.103Z,100687.03
2022-08-26T19:51:27.135Z,100683.84
2022-08-26T19:53:56.818Z,100685.44
2022-08-26T19:56:24.592Z,100690.22
2022-08-26T19:58:52.300Z,100698.59
2022-08-26T20:01:19.851Z,100692.19
2022-08-26T20:03:47.841Z,100700.56
2022-08-26T20:06:16.787Z,100700.94
2022-08-26T20:08:45.398Z,100704.53
2022-08-26T20:11:17.525Z,100700.94
2022-08-26T20:13:47.072Z,100701.75
2022-08-26T20:16:17.010Z,100703.38
2022-08-26T20:19:04.241Z,100703.38
2022-08-26T20:21:35.897Z,100708.97
2022-08-26T20:24:11.198Z,100714.16
2022-08-26T20:26:41.693Z,100711.78
2022-08-26T20:29:12.476Z,100707.00
2022-08-26T20:31:40.198Z,100709.41
2022-08-26T20:34:07.795Z,100718.56
2022-08-26T20:36:35.489Z,100722.16
2022-08-26T20:39:04.651Z,100722.56
2022-08-26T20:41:32.365Z,100724.19
2022-08-26T20:44:00.060Z,100725.78
2022-08-26T20:46:27.908Z,100720.59
2022-08-26T20:48:55.633Z,100723.38
2022-08-26T20:51:26.163Z,100728.97
2022-08-26T20:53:53.654Z,100729.75
2022-08-26T20:56:24.479Z,100729.38
2022-08-26T20:58:54.497Z,100734.16
2022-08-26T21:01:28.667Z,100736.94
2022-08-26T21:03:57.365Z,100736.53
2022-08-26T21:06:26.105Z,100734.16
2022-08-26T21:08:54.067Z,100736.94
2022-08-26T21:11:22.770Z,100745.28
2022-08-26T21:14:07.022Z,100736.16
2022-08-26T21:16:39.508Z,100734.97
2022-08-26T21:19:09.510Z,100736.53
2022-08-26T21:21:36.809Z,100744.13
2022-08-26T21:24:04.569Z,100735.34
2022-08-26T21:26:31.908Z,100729.00
2022-08-26T21:29:01.278Z,100737.34
2022-08-26T21:31:30.095Z,100736.16
2022-08-26T21:33:57.316Z,100733.78
2022-08-26T21:36:24.761Z,100736.94
2022-08-26T21:38:51.998Z,100736.94
2022-08-26T21:41:22.286Z,100735.38
2022-08-26T21:43:51.090Z,100742.16
2022-08-26T21:46:22.227Z,100744.53
2022-08-26T21:48:59.517Z,100736.19
2022-08-26T21:51:32.623Z,100746.91
2022-08-26T21:54:01.577Z,100750.91
2022-08-26T21:56:32.461Z,100744.53
2022-08-26T21:59:01.540Z,100749.69
2022-08-26T22:01:34.067Z,100752.09
2022-08-26T22:04:04.272Z,100757.25
2022-08-26T22:06:33.285Z,100756.88
2022-08-26T22:09:00.795Z,100757.25
2022-08-26T22:11:29.212Z,100750.09
2022-08-26T22:13:57.202Z,100745.75
2022-08-26T22:16:27.031Z,100747.75
2022-08-26T22:18:55.440Z,100747.75
2022-08-26T22:21:24.626Z,100751.69
2022-08-26T22:23:56.237Z,100739.75
2022-08-26T22:26:29.051Z,100743.75
2022-08-26T22:28:58.989Z,100744.53
2022-08-26T22:31:37.175Z,100741.34
2022-08-26T22:34:09.564Z,100735.00
2022-08-26T22:36:43.522Z,100741.75
2022-08-26T22:39:15.907Z,100739.75
2022-08-26T22:41:44.400Z,100738.19
2022-08-26T22:44:12.538Z,100733.41
2022-08-26T22:46:41.593Z,100729.84
2022-08-26T22:49:11.176Z,100729.03
2022-08-26T22:51:38.908Z,100723.06
2022-08-26T22:54:06.970Z,100729.06
2022-08-26T22:56:35.175Z,100726.66
2022-08-26T22:59:02.610Z,100725.88
2022-08-26T23:01:30.118Z,100723.06
2022-08-26T23:03:57.362Z,100718.72
2022-08-26T23:06:24.657Z,100726.66
2022-08-26T23:08:53.318Z,100721.50
2022-08-26T23:11:20.751Z,100731.00
2022-08-26T23:13:48.001Z,100730.63
2022-08-26T23:16:15.323Z,100722.66
2022-08-26T23:18:42.715Z,100722.28
2022-08-26T23:21:10.920Z,100727.03
2022-08-26T23:23:38.673Z,100724.25
2022-08-26T23:26:08.012Z,100720.31
2022-08-26T23:28:38.584Z,100712.34
2022-08-26T23:31:06.362Z,100710.75
2022-08-26T23:33:53.216Z,100709.97
2022-08-26T23:36:22.742Z,100711.53
2022-08-26T23:38:52.879Z,100706.75
2022-08-26T23:41:22.880Z,100705.19
2022-08-26T23:43:51.790Z,100711.91
2022-08-26T23:46:20.029Z,100710.34
2022-08-26T23:48:48.022Z,100709.13
2022-08-26T23:51:34.716Z,100725.47
2022-08-26T23:54:02.131Z,100715.50
2022-08-26T23:56:29.490Z,100703.59
2022-08-26T23:58:57.266Z,100702.41
